createdAt,value
2022-12-01T00:03:34.836Z,24.10
2022-12-01T00:08:40.520Z,24.37
2022-12-01T00:13:45.965Z,23.17
2022-12-01T00:18:53.763Z,23.27
2022-12-01T00:23:59.900Z,23.03
2022-12-01T00:29:05.602Z,23.57
2022-12-01T00:34:14.038Z,23.47
2022-12-01T00:39:19.427Z,24.33
2022-12-01T00:44:24.815Z,24.10
2022-12-01T00:49:30.442Z,22.77
2022-12-01T00:54:35.830Z,24.53
2022-12-01T00:59:41.496Z,23.83
2022-12-01T01:04:46.881Z,24.87
2022-12-01T01:09:52.275Z,23.40
2022-12-01T01:14:57.736Z,23.13
2022-12-01T01:20:04.780Z,24.43
2022-12-01T01:25:10.575Z,23.47
2022-12-01T01:30:16.709Z,24.30
2022-12-01T01:35:22.095Z,26.30
2022-12-01T01:40:27.478Z,25.23
2022-12-01T01:45:33.277Z,28.13
2022-12-01T01:50:39.382Z,25.53
2022-12-01T01:55:45.980Z,25.27
2022-12-01T02:00:51.473Z,27.03
2022-12-01T02:06:00.544Z,26.93
2022-12-01T02:11:07.981Z,27.80
2022-12-01T02:16:19.327Z,24.60
2022-12-01T02:21:36.696Z,23.70
2022-12-01T02:26:54.280Z,26.00
2022-12-01T02:32:32.773Z,25.17
2022-12-01T02:37:59.022Z,26.70
2022-12-01T02:43:22.555Z,25.57
2022-12-01T02:48:39.765Z,24.43
2022-12-01T02:53:45.666Z,23.73
2022-12-01T02:58:51.801Z,23.20
2022-12-01T03:04:14.698Z,22.50
2022-12-01T03:09:32.347Z,24.73
2022-12-01T03:14:58.845Z,23.43
2022-12-01T03:20:11.857Z,23.03
2022-12-01T03:25:19.098Z,22.30
2022-12-01T03:30:30.096Z,23.07
2022-12-01T03:35:38.574Z,22.27
2022-12-01T03:40:46.148Z,23.80
2022-12-01T03:46:06.637Z,23.07
2022-12-01T03:51:16.164Z,24.83
2022-12-01T03:56:24.724Z,21.20
2022-12-01T04:01:34.983Z,21.00
2022-12-01T04:06:43.745Z,19.63
2022-12-01T04:12:07.006Z,19.67
2022-12-01T04:17:12.390Z,20.73
2022-12-01T04:22:17.777Z,19.13
2022-12-01T04:27:23.162Z,20.47
2022-12-01T04:32:28.715Z,20.03
2022-12-01T04:37:34.270Z,20.87
2022-12-01T04:42:39.832Z,19.70
2022-12-01T04:47:45.358Z,21.80
2022-12-01T04:52:50.766Z,19.40
2022-12-01T04:57:56.429Z,18.93
2022-12-01T05:03:02.250Z,18.67
2022-12-01T05:08:07.891Z,19.67
2022-12-01T05:13:13.451Z,18.73
2022-12-01T05:18:18.937Z,18.40
2022-12-01T05:23:29.667Z,18.27
2022-12-01T05:28:35.961Z,18.80
2022-12-01T05:33:41.752Z,18.90
2022-12-01T05:38:47.227Z,17.87
2022-12-01T05:43:52.785Z,18.03
2022-12-01T05:48:58.177Z,17.97
2022-12-01T05:54:03.841Z,18.70
2022-12-01T05:59:09.243Z,17.33
2022-12-01T06:04:14.761Z,18.33
2022-12-01T06:09:20.178Z,17.13
2022-12-01T06:14:25.640Z,18.23
2022-12-01T06:19:31.739Z,17.80
2022-12-01T06:24:37.123Z,16.83
2022-12-01T06:29:42.575Z,18.33
2022-12-01T06:34:47.984Z,18.77
2022-12-01T06:39:53.446Z,18.23
2022-12-01T06:44:59.056Z,17.57
2022-12-01T06:50:07.027Z,17.93
2022-12-01T06:55:12.436Z,17.27
2022-12-01T07:00:18.928Z,17.90
2022-12-01T07:05:24.496Z,17.80
2022-12-01T07:10:29.884Z,17.97
2022-12-01T07:15:35.275Z,17.80
2022-12-01T07:20:43.203Z,18.03
2022-12-01T07:25:48.939Z,18.07
2022-12-01T07:30:54.407Z,19.63
2022-12-01T07:36:00.303Z,19.93
2022-12-01T07:41:08.015Z,20.63
2022-12-01T07:46:22.300Z,20.63
2022-12-01T07:51:25.492Z,20.77
2022-12-01T07:56:31.052Z,23.63
2022-12-01T08:01:40.279Z,22.30
2022-12-01T08:06:43.737Z,21.50
2022-12-01T08:11:49.132Z,21.57
2022-12-01T08:16:54.518Z,22.33
2022-12-01T08:21:59.909Z,21.10
2022-12-01T08:27:05.391Z,23.03
2022-12-01T08:32:10.820Z,23.20
2022-12-01T08:37:16.284Z,21.30
2022-12-01T08:42:21.854Z,22.10
2022-12-01T08:47:29.890Z,23.87
2022-12-01T08:52:35.864Z,30.55
2022-12-01T08:57:41.252Z,24.57
2022-12-01T09:02:47.054Z,22.67
2022-12-01T09:07:54.256Z,20.97
2022-12-01T09:12:59.887Z,20.53
2022-12-01T09:18:06.791Z,22.03
2022-12-01T09:23:12.237Z,20.03
2022-12-01T09:28:18.186Z,19.93
2022-12-01T09:33:23.645Z,19.47
2022-12-01T09:38:31.576Z,18.20
2022-12-01T09:43:45.998Z,20.47
2022-12-01T09:48:54.731Z,17.73
2022-12-01T09:54:02.007Z,17.73
2022-12-01T09:59:10.418Z,18.33
2022-12-01T10:04:18.854Z,17.63
2022-12-01T10:09:30.374Z,16.50
2022-12-01T10:14:38.203Z,17.30
2022-12-01T10:20:07.762Z,16.43
2022-12-01T10:25:16.270Z,16.63
2022-12-01T10:30:23.951Z,17.97
2022-12-01T10:35:37.208Z,17.17
2022-12-01T10:40:44.332Z,16.13
2022-12-01T10:45:52.091Z,17.90
2022-12-01T10:51:00.627Z,17.07
2022-12-01T10:56:21.636Z,15.17
2022-12-01T11:01:34.469Z,14.50
2022-12-01T11:06:41.687Z,16.60
2022-12-01T11:11:47.887Z,15.87
2022-12-01T11:16:54.671Z,16.50
2022-12-01T11:22:03.297Z,15.60
2022-12-01T11:27:11.816Z,16.00
2022-12-01T11:32:23.414Z,15.43
2022-12-01T11:37:41.990Z,17.37
2022-12-01T11:42:53.089Z,17.33
2022-12-01T11:48:27.415Z,17.80
2022-12-01T11:53:38.505Z,17.90
2022-12-01T11:58:46.007Z,17.47
2022-12-01T12:04:13.584Z,17.43
2022-12-01T12:09:30.743Z,17.43
2022-12-01T12:14:51.403Z,16.17
2022-12-01T12:20:08.574Z,18.37
2022-12-01T12:25:23.054Z,17.63
2022-12-01T12:30:31.856Z,16.97
2022-12-01T12:35:43.488Z,17.80
2022-12-01T12:41:08.640Z,17.53
2022-12-01T12:46:17.121Z,17.13
2022-12-01T12:51:43.457Z,18.03
2022-12-01T12:56:51.941Z,17.13
2022-12-01T13:02:00.527Z,17.87
2022-12-01T13:07:09.140Z,17.73
2022-12-01T13:12:20.914Z,16.60
2022-12-01T13:17:29.726Z,16.80
2022-12-01T13:22:37.229Z,17.00
2022-12-01T13:27:45.435Z,17.20
2022-12-01T13:32:52.953Z,16.67
2022-12-01T13:38:16.526Z,17.13
2022-12-01T13:43:24.131Z,16.93
2022-12-01T13:48:41.828Z,15.80
2022-12-01T13:54:05.358Z,15.73
2022-12-01T13:59:41.944Z,15.07
2022-12-01T14:04:47.840Z,15.60
2022-12-01T14:09:59.909Z,21.77
2022-12-01T14:15:08.464Z,17.33
2022-12-01T14:20:23.023Z,15.97
2022-12-01T14:25:30.940Z,16.53
2022-12-01T14:30:49.997Z,16.27
2022-12-01T14:35:57.010Z,16.97
2022-12-01T14:41:04.247Z,15.83
2022-12-01T14:46:12.734Z,16.33
2022-12-01T14:51:30.277Z,16.00
2022-12-01T14:56:37.520Z,17.50
2022-12-01T15:01:43.143Z,19.40
2022-12-01T15:06:50.401Z,19.27
2022-12-01T15:11:58.806Z,20.27
2022-12-01T15:17:05.877Z,18.60
2022-12-01T15:22:17.033Z,16.57
2022-12-01T15:27:31.306Z,16.63
2022-12-01T15:32:38.404Z,17.57
2022-12-01T15:37:45.652Z,17.07
2022-12-01T15:43:06.153Z,17.17
2022-12-01T15:48:25.854Z,17.07
2022-12-01T15:53:33.891Z,17.33
2022-12-01T15:58:45.288Z,16.93
2022-12-01T16:04:03.870Z,17.63
2022-12-01T16:09:21.464Z,16.83
2022-12-01T16:14:26.862Z,17.37
2022-12-01T16:19:36.092Z,16.87
2022-12-01T16:24:50.585Z,15.97
2022-12-01T16:30:02.162Z,17.73
2022-12-01T16:35:09.981Z,16.23
2022-12-01T16:40:18.403Z,15.40
2022-12-01T16:45:25.491Z,16.03
2022-12-01T16:50:30.920Z,16.57
2022-12-01T16:55:57.152Z,15.57
2022-12-01T17:01:02.657Z,16.90
2022-12-01T17:06:08.686Z,14.80
2022-12-01T17:11:14.222Z,14.93
2022-12-01T17:16:19.972Z,15.43
2022-12-01T17:21:25.386Z,14.90
2022-12-01T17:26:30.794Z,14.63
2022-12-01T17:31:36.298Z,14.10
2022-12-01T17:36:41.954Z,15.63
2022-12-01T17:41:47.358Z,14.40
2022-12-01T17:46:53.201Z,16.17
2022-12-01T17:51:58.952Z,15.20
2022-12-01T17:57:04.445Z,18.82
2022-12-01T18:02:13.193Z,14.93
2022-12-01T18:07:18.616Z,15.30
2022-12-01T18:12:24.537Z,15.37
2022-12-01T18:17:30.036Z,14.43
2022-12-01T18:22:35.432Z,17.47
2022-12-01T18:27:40.892Z,16.57
2022-12-01T18:32:46.283Z,19.10
2022-12-01T18:37:51.754Z,19.17
2022-12-01T18:42:57.136Z,27.97
2022-12-01T18:48:04.045Z,23.57
2022-12-01T18:53:10.338Z,20.70
2022-12-01T18:58:15.731Z,20.37
2022-12-01T19:03:21.512Z,20.50
2022-12-01T19:08:26.968Z,20.63
2022-12-01T19:13:34.064Z,21.73
2022-12-01T19:18:40.779Z,22.60
2022-12-01T19:23:47.228Z,19.77
2022-12-01T19:28:52.793Z,20.00
2022-12-01T19:33:58.329Z,20.10
2022-12-01T19:39:07.501Z,20.60
2022-12-01T19:44:12.112Z,19.13
2022-12-01T19:49:17.686Z,17.47
2022-12-01T19:54:23.282Z,17.10
2022-12-01T19:59:28.746Z,16.60
2022-12-01T20:04:34.448Z,17.27
2022-12-01T20:09:44.337Z,15.70
2022-12-01T20:14:49.412Z,16.87
2022-12-01T20:19:55.425Z,16.80
2022-12-01T20:25:00.815Z,16.57
2022-12-01T20:30:07.892Z,17.67
2022-12-01T20:35:13.352Z,16.13
2022-12-01T20:40:18.886Z,16.43
2022-12-01T20:45:24.365Z,18.77
2022-12-01T20:50:29.782Z,18.97
2022-12-01T20:55:37.166Z,18.20
2022-12-01T21:00:47.398Z,18.40
2022-12-01T21:05:52.892Z,16.67
2022-12-01T21:10:58.288Z,16.50
2022-12-01T21:16:09.578Z,16.57
2022-12-01T21:21:15.476Z,16.03
2022-12-01T21:26:20.983Z,16.07
2022-12-01T21:31:27.458Z,15.50
2022-12-01T21:36:34.168Z,18.23
2022-12-01T21:41:39.940Z,18.17
2022-12-01T21:46:47.913Z,16.43
2022-12-01T21:51:54.139Z,18.13
2022-12-01T21:57:00.607Z,18.33
2022-12-01T22:02:09.215Z,18.60
2022-12-01T22:07:16.211Z,20.00
2022-12-01T22:12:27.614Z,19.63
2022-12-01T22:17:33.285Z,19.70
2022-12-01T22:22:40.252Z,17.73
2022-12-01T22:27:45.741Z,20.37
2022-12-01T22:33:04.433Z,18.30
2022-12-01T22:38:21.918Z,18.80
2022-12-01T22:43:46.788Z,18.60
2022-12-01T22:49:16.408Z,19.80
2022-12-01T22:54:27.545Z,19.13
2022-12-01T22:59:38.893Z,17.90
2022-12-01T23:04:45.209Z,18.77
2022-12-01T23:09:50.741Z,19.37
2022-12-01T23:14:59.306Z,20.10
2022-12-01T23:20:13.469Z,20.87
2022-12-01T23:25:20.874Z,19.63
2022-12-01T23:30:26.511Z,19.50
2022-12-01T23:35:34.170Z,19.67
2022-12-01T23:40:40.351Z,21.43
2022-12-01T23:45:46.850Z,19.47
2022-12-01T23:50:54.380Z,20.57
2022-12-01T23:56:02.859Z,20.37
